Time;durP1;ratioP1;P1;durP2;ratioP2;P2;SDS_P1;SDS_P2;PMS_P1;PMS_P2;Temp;Humidity;BMP_temperature;BMP_pressure;BME280_temperature;BME280_humidity;BME280_pressure;Samples;Min_cycle;Max_cycle;Signal;HPM_P1;HPM_P2
2023/05/15 00:06:33;;;;;;;;;;;;;;;;;;6197020;23;19930;-96
2023/05/15 00:09:20;;;;;;;;;;;;;;;;;;6177356;23;19943;-96
2023/05/15 00:12:03;;;;;;;;;;;;;;;;;;6226563;23;19915;-94
2023/05/15 00:14:38;;;;;;;;;;;;;;;;;;6173859;23;19916;-95
2023/05/15 00:17:06;;;;;;;;;;;;;;;;;;6175794;23;19922;-96
2023/05/15 00:23:03;;;;;;;;;;;;;;;;;;6198926;23;20185;-96
2023/05/15 00:25:29;;;;;;;;;;;;;;;;;;6171326;23;19916;-94
2023/05/15 00:27:55;;;;;;;;;;;;;;;;;;6168756;23;19991;-95
2023/05/15 00:30:21;;;;;;;;;;;;;;;;;;6169167;23;19920;-94
2023/05/15 00:32:49;;;;;;;;;;;;;;;;;;6168564;23;19916;-95
2023/05/15 00:35:15;;;;;;;;;;;;;;;;;;6168327;23;20015;-94
2023/05/15 00:37:41;;;;;;;;;;;;;;;;;;6171348;23;19923;-93
2023/05/15 00:40:07;;;;;;;;;;;;;;;;;;6188620;23;19999;-94
2023/05/15 00:42:36;;;;;;;;;;;;;;;;;;6166439;23;19916;-95
2023/05/15 00:45:02;;;;;;;;;;;;;;;;;;6166343;23;19922;-96
2023/05/15 00:47:28;;;;;;;;;;;;;;;;;;6167582;23;19916;-95
2023/05/15 00:49:54;;;;;;;;;;;;;;;;;;6166466;23;19977;-94
2023/05/15 00:52:20;;;;;;;;;;;;;;;;;;6165599;23;19923;-95
2023/05/15 00:54:46;;;;;;;;;;;;;;;;;;6167004;23;19915;-95
2023/05/15 00:57:12;;;;;;;;;;;;;;;;;;6166790;23;19963;-94
2023/05/15 00:59:37;;;;;;;;;;;;;;;;;;6166845;23;19920;-95
2023/05/15 01:02:04;;;;;;;;;;;;;;;;;;6170302;23;20034;-96
2023/05/15 01:04:32;;;;;;;;;;;;;;;;;;6173914;23;19916;-96
2023/05/15 01:06:58;;;;;;;;;;;;;;;;;;6163373;23;19920;-95
2023/05/15 01:09:24;;;;;;;;;;;;;;;;;;6162089;23;19923;-96
2023/05/15 01:11:50;;;;;;;;;;;;;;;;;;6162980;23;19939;-96
2023/05/15 01:14:21;;;;;;;;;;;;;;;;;;6163003;23;20322;-96
2023/05/15 01:16:47;;;;;;;;;;;;;;;;;;6163860;23;20049;-96
2023/05/15 01:19:16;;;;;;;;;;;;;;;;;;6164991;23;20258;-95
2023/05/15 01:21:44;;;;;;;;;;;;;;;;;;6169783;23;19916;-96
2023/05/15 01:24:09;;;;;;;;;;;;;;;;;;6167125;23;19924;-95
2023/05/15 01:26:37;;;;;;;;;;;;;;;;;;6164520;23;20199;-94
2023/05/15 01:29:13;;;;;;;;;;;;;;;;;;;;;
2023/05/15 01:32:01;;;;;;;;;;;;;;;;;;6144567;23;19923;-95
2023/05/15 01:37:40;;;;;;;;;;;;;;;;;;6101755;23;19916;-95
2023/05/15 01:40:06;;;;;;;;;;;;;;;;;;6161946;23;19916;-95
2023/05/15 01:42:32;;;;;;;;;;;;;;;;;;6162597;23;19955;-95
2023/05/15 01:44:58;;;;;;;;;;;;;;;;;;6162404;23;19916;-95
2023/05/15 01:47:24;;;;;;;;;;;;;;;;;;6162697;23;19916;-95
2023/05/15 01:49:50;;;;;;;;;;;;;;;;;;6160795;23;19923;-94
2023/05/15 01:52:16;;;;;;;;;;;;;;;;;;6160717;23;19916;-95
2023/05/15 01:54:45;;;;;;;;;;;;;;;;;;6161433;23;19936;-96
2023/05/15 01:57:11;;;;;;;;;;;;;;;;;;6161313;23;19931;-96
2023/05/15 01:59:39;;;;;;;;;;;;;;;;;;6164113;23;19920;-96
2023/05/15 02:02:05;;;;;;;;;;;;;;;;;;6163896;23;19920;-96
2023/05/15 02:04:33;;;;;;;;;;;;;;;;;;6198106;23;19917;-93
2023/05/15 02:06:59;;;;;;;;;;;;;;;;;;6176465;23;19927;-96
2023/05/15 02:12:54;;;;;;;;;;;;;;;;;;;;;
2023/05/15 02:15:31;;;;;;;;;;;;;;;;;;6019966;23;19918;-96
2023/05/15 02:18:00;;;;;;;;;;;;;;;;;;6120542;23;20388;-96
2023/05/15 02:20:35;;;;;;;;;;;;;;;;;;6195034;23;19966;-96
2023/05/15 02:26:07;;;;;;;;;;;;;;;;;;;;;
2023/05/15 02:28:35;;;;;;;;;;;;;;;;;;6157757;23;19940;-96
2023/05/15 02:31:01;;;;;;;;;;;;;;;;;;6160925;23;19935;-94
2023/05/15 02:49:50;;;;;;;;;;;;;;;;;;6161182;23;19969;-95
2023/05/15 02:52:33;;;;;;;;;;;;;;;;;;6107390;23;20019;-96
2023/05/15 02:55:03;;;;;;;;;;;;;;;;;;6080612;23;19917;-95
2023/05/15 02:57:32;;;;;;;;;;;;;;;;;;6126971;23;19924;-96
2023/05/15 02:59:58;;;;;;;;;;;;;;;;;;6078578;23;19917;-96
2023/05/15 03:02:24;;;;;;;;;;;;;;;;;;6079911;23;19968;-95
2023/05/15 03:05:02;;;;;;;;;;;;;;;;;;6086887;23;20266;-94
2023/05/15 03:11:19;;;;;;;;;;;;;;;;;;;;;
2023/05/15 03:13:40;;;;;;;;;;;;;;;;;;6103522;23;19917;-96
2023/05/15 03:16:07;;;;;;;;;;;;;;;;;;6101208;23;19917;-96
2023/05/15 03:18:44;;;;;;;;;;;;;;;;;;6083271;23;19949;-96
2023/05/15 03:21:13;;;;;;;;;;;;;;;;;;6084162;23;19920;-96
2023/05/15 03:23:42;;;;;;;;;;;;;;;;;;6083172;23;20280;-96
2023/05/15 03:26:17;;;;;;;;;;;;;;;;;;6119134;23;19924;-96
2023/05/15 03:28:46;;;;;;;;;;;;;;;;;;6135707;23;20038;-95
2023/05/15 03:31:21;;;;;;;;;;;;;;;;;;6134863;23;19936;-96
2023/05/15 03:33:51;;;;;;;;;;;;;;;;;;6158227;23;19989;-96
2023/05/15 03:36:19;;;;;;;;;;;;;;;;;;6162243;23;19957;-96
2023/05/15 03:38:45;;;;;;;;;;;;;;;;;;6134151;23;19921;-96
2023/05/15 03:41:11;;;;;;;;;;;;;;;;;;6133093;23;19971;-96
2023/05/15 03:43:37;;;;;;;;;;;;;;;;;;6135419;23;19923;-96
2023/05/15 03:46:10;;;;;;;;;;;;;;;;;;6142613;23;19932;-96
2023/05/15 03:48:36;;;;;;;;;;;;;;;;;;6149453;23;19927;-96
2023/05/15 03:51:02;;;;;;;;;;;;;;;;;;6143399;23;19916;-96
2023/05/15 03:53:28;;;;;;;;;;;;;;;;;;6166498;23;19928;-96
2023/05/15 03:55:54;;;;;;;;;;;;;;;;;;6164849;23;19992;-95
2023/05/15 03:58:20;;;;;;;;;;;;;;;;;;6147900;23;20029;-93
2023/05/15 04:00:46;;;;;;;;;;;;;;;;;;6139667;23;20069;-94
2023/05/15 04:03:18;;;;;;;;;;;;;;;;;;6165961;23;19991;-95
2023/05/15 04:08:33;;;;;;;;;;;;;;;;;;6108502;23;19929;-95
2023/05/15 04:11:02;;;;;;;;;;;;;;;;;;6130374;23;19997;-96
2023/05/15 04:13:57;;;;;;;;;;;;;;;;;;6154236;23;20062;-96
2023/05/15 04:16:26;;;;;;;;;;;;;;;;;;6156904;23;19917;-96
2023/05/15 04:18:53;;;;;;;;;;;;;;;;;;6130968;23;20003;-95
2023/05/15 04:21:19;;;;;;;;;;;;;;;;;;6133454;23;19928;-96
2023/05/15 04:23:45;;;;;;;;;;;;;;;;;;6131490;23;19921;-91
2023/05/15 04:26:12;;;;;;;;;;;;;;;;;;6140700;23;19920;-96
2023/05/15 04:29:19;;;;;;;;;;;;;;;;;;6151131;23;19916;-96
2023/05/15 04:31:45;;;;;;;;;;;;;;;;;;6110908;23;19975;-96
2023/05/15 04:34:11;;;;;;;;;;;;;;;;;;6106546;23;19924;-95
2023/05/15 04:36:37;;;;;;;;;;;;;;;;;;6104977;23;19924;-95
2023/05/15 04:39:10;;;;;;;;;;;;;;;;;;6105344;23;20330;-96
2023/05/15 04:42:02;;;;;;;;;;;;;;;;;;6109151;23;20066;-96
2023/05/15 04:44:50;;;;;;;;;;;;;;;;;;6107615;23;20164;-96
2023/05/15 04:47:49;;;;;;;;;;;;;;;;;;6130313;23;19967;-96
2023/05/15 04:50:53;;;;;;;;;;;;;;;;;;6128817;23;19968;-96
2023/05/15 04:53:00;;;;;;;;;;;;;;;;;;6117679;23;19936;-96
2023/05/15 04:55:30;;;;;;;;;;;;;;;;;;6105601;23;20205;-96
2023/05/15 05:00:45;;;;;;;;;;;;;;;;;;6132127;23;19943;-96
2023/05/15 05:03:11;;;;;;;;;;;;;;;;;;6107020;23;19916;-96
2023/05/15 05:06:03;;;;;;;;;;;;;;;;;;6131763;23;20238;-95
2023/05/15 05:08:32;;;;;;;;;;;;;;;;;;6110254;23;19960;-96
2023/05/15 05:11:08;;;;;;;;;;;;;;;;;;6136422;23;19931;-96
2023/05/15 05:14:04;;;;;;;;;;;;;;;;;;6109177;23;19948;-95
2023/05/15 05:16:43;;;;;;;;;;;;;;;;;;;;;
2023/05/15 05:19:16;;;;;;;;;;;;;;;;;;6133646;23;19939;-96
2023/05/15 05:21:50;;;;;;;;;;;;;;;;;;6157964;23;19916;-96
2023/05/15 05:24:22;;;;;;;;;;;;;;;;;;6108058;23;19948;-96
2023/05/15 05:26:48;;;;;;;;;;;;;;;;;;6106734;23;20295;-94
2023/05/15 05:29:14;;;;;;;;;;;;;;;;;;6131881;23;19921;-96
2023/05/15 05:31:40;;;;;;;;;;;;;;;;;;6131646;23;19925;-95
2023/05/15 05:34:07;;;;;;;;;;;;;;;;;;6154796;23;19936;-95
2023/05/15 05:36:35;;;;;;;;;;;;;;;;;;6130996;23;19948;-95
2023/05/15 05:39:03;;;;;;;;;;;;;;;;;;6130925;23;20317;-95
2023/05/15 05:41:29;;;;;;;;;;;;;;;;;;6131218;23;19979;-95
2023/05/15 05:43:55;;;;;;;;;;;;;;;;;;6130911;23;20331;-94
2023/05/15 05:46:21;;;;;;;;;;;;;;;;;;6130429;23;20351;-94
2023/05/15 05:48:47;;;;;;;;;;;;;;;;;;6130949;23;19964;-94
2023/05/15 05:51:13;;;;;;;;;;;;;;;;;;6130835;23;20274;-94
2023/05/15 05:53:39;;;;;;;;;;;;;;;;;;6130895;23;19959;-94
2023/05/15 05:56:06;;;;;;;;;;;;;;;;;;6130502;23;19955;-94
2023/05/15 05:58:32;;;;;;;;;;;;;;;;;;6129987;23;19921;-94
2023/05/15 06:00:59;;;;;;;;;;;;;;;;;;6131144;23;19960;-95
2023/05/15 06:03:25;;;;;;;;;;;;;;;;;;6131516;23;19979;-96
2023/05/15 06:05:54;;;;;;;;;;;;;;;;;;6132994;23;19973;-93
2023/05/15 06:08:20;;;;;;;;;;;;;;;;;;6131206;23;19923;-94
2023/05/15 06:10:47;;;;;;;;;;;;;;;;;;6130693;23;19917;-92
2023/05/15 06:13:13;;;;;;;;;;;;;;;;;;6130233;23;19956;-92
2023/05/15 06:15:39;;;;;;;;;;;;;;;;;;6130118;23;19917;-94
2023/05/15 06:18:05;;;;;;;;;;;;;;;;;;6131024;23;20000;-93
2023/05/15 06:20:33;;;;;;;;;;;;;;;;;;6154872;23;19917;-93
2023/05/15 06:22:59;;;;;;;;;;;;;;;;;;6130953;23;19948;-93
2023/05/15 06:25:25;;;;;;;;;;;;;;;;;;6135810;23;19917;-94
2023/05/15 06:27:51;;;;;;;;;;;;;;;;;;6130360;23;19928;-95
2023/05/15 06:30:19;;;;;;;;;;;;;;;;;;6153688;23;19917;-94
2023/05/15 06:32:45;;;;;;;;;;;;;;;;;;6129957;23;20055;-94
2023/05/15 06:35:10;;;;;;;;;;;;;;;;;;6130703;23;20015;-95
2023/05/15 06:37:36;;;;;;;;;;;;;;;;;;6129995;23;19965;-95
2023/05/15 06:40:23;;;;;;;;;;;;;;;;;;6131060;23;19940;-96
2023/05/15 06:42:50;;;;;;;;;;;;;;;;;;6154833;23;19975;-95
2023/05/15 06:45:15;;;;;;;;;;;;;;;;;;6130254;23;19951;-93
2023/05/15 06:47:41;;;;;;;;;;;;;;;;;;6132011;23;19917;-93
2023/05/15 06:50:08;;;;;;;;;;;;;;;;;;6155345;23;19917;-96
2023/05/15 06:52:34;;;;;;;;;;;;;;;;;;6130388;23;20246;-95
2023/05/15 06:55:04;;;;;;;;;;;;;;;;;;6130012;23;19916;-94
2023/05/15 06:57:30;;;;;;;;;;;;;;;;;;6155052;23;19975;-95
2023/05/15 06:59:56;;;;;;;;;;;;;;;;;;6129957;23;20252;-95
2023/05/15 07:02:22;;;;;;;;;;;;;;;;;;6131654;23;20040;-95
2023/05/15 07:04:48;;;;;;;;;;;;;;;;;;6130029;23;20224;-94
2023/05/15 07:07:14;;;;;;;;;;;;;;;;;;6130113;23;20251;-93
2023/05/15 07:09:40;;;;;;;;;;;;;;;;;;6129768;23;19924;-95
2023/05/15 07:12:06;;;;;;;;;;;;;;;;;;6129881;23;19917;-95
2023/05/15 07:14:32;;;;;;;;;;;;;;;;;;6129522;23;19924;-93
2023/05/15 07:16:58;;;;;;;;;;;;;;;;;;6129964;23;19927;-93
2023/05/15 07:19:24;;;;;;;;;;;;;;;;;;6129399;23;19920;-91
2023/05/15 07:21:50;;;;;;;;;;;;;;;;;;6129791;23;20031;-93
2023/05/15 07:24:16;;;;;;;;;;;;;;;;;;6129384;23;19970;-94
2023/05/15 07:26:42;;;;;;;;;;;;;;;;;;6129131;23;19971;-94
2023/05/15 07:29:08;;;;;;;;;;;;;;;;;;6129070;23;19924;-92
2023/05/15 07:31:34;;;;;;;;;;;;;;;;;;6129607;23;20007;-92
2023/05/15 07:34:00;;;;;;;;;;;;;;;;;;6129433;23;19971;-92
2023/05/15 07:36:26;;;;;;;;;;;;;;;;;;6153612;23;20323;-93
2023/05/15 07:38:53;;;;;;;;;;;;;;;;;;6128975;23;19964;-96
2023/05/15 07:41:22;;;;;;;;;;;;;;;;;;6130643;23;19916;-93
2023/05/15 07:43:48;;;;;;;;;;;;;;;;;;6129514;23;19988;-95
2023/05/15 07:46:15;;;;;;;;;;;;;;;;;;6153935;23;20051;-92
2023/05/15 07:48:40;;;;;;;;;;;;;;;;;;6127746;23;19996;-92
2023/05/15 07:51:06;;;;;;;;;;;;;;;;;;6128168;23;20349;-93
2023/05/15 07:53:35;;;;;;;;;;;;;;;;;;6129409;23;19916;-92
2023/05/15 07:56:01;;;;;;;;;;;;;;;;;;6128752;23;19923;-93
2023/05/15 07:58:27;;;;;;;;;;;;;;;;;;6128987;23;19943;-93
2023/05/15 08:00:53;;;;;;;;;;;;;;;;;;6128930;23;19927;-95
2023/05/15 08:03:19;;;;;;;;;;;;;;;;;;6128906;23;20357;-93
2023/05/15 08:05:48;;;;;;;;;;;;;;;;;;6130067;23;19916;-93
2023/05/15 08:08:14;;;;;;;;;;;;;;;;;;6128342;23;20305;-93
2023/05/15 08:10:40;;;;;;;;;;;;;;;;;;6129197;23;19916;-94
2023/05/15 08:13:06;;;;;;;;;;;;;;;;;;6128543;23;19991;-93
2023/05/15 08:15:32;;;;;;;;;;;;;;;;;;6128994;23;20247;-94
2023/05/15 08:17:58;;;;;;;;;;;;;;;;;;6129077;23;19928;-92
2023/05/15 08:20:24;;;;;;;;;;;;;;;;;;6129543;23;19917;-93
2023/05/15 08:22:50;;;;;;;;;;;;;;;;;;6129409;23;19916;-93
2023/05/15 08:25:15;;;;;;;;;;;;;;;;;;6128816;23;19917;-92
2023/05/15 08:27:41;;;;;;;;;;;;;;;;;;6128978;23;20304;-93
2023/05/15 08:30:07;;;;;;;;;;;;;;;;;;6129386;23;19960;-94
2023/05/15 08:32:33;;;;;;;;;;;;;;;;;;6129346;23;20409;-93
2023/05/15 08:35:00;;;;;;;;;;;;;;;;;;6129132;23;20195;-93
2023/05/15 08:37:25;;;;;;;;;;;;;;;;;;6129059;23;19917;-93
2023/05/15 08:39:51;;;;;;;;;;;;;;;;;;6128946;23;19920;-93
2023/05/15 08:42:17;;;;;;;;;;;;;;;;;;6129225;23;19917;-93
2023/05/15 08:44:43;;;;;;;;;;;;;;;;;;6128685;23;19987;-93
2023/05/15 08:47:09;;;;;;;;;;;;;;;;;;6129263;23;19934;-93
2023/05/15 08:49:36;;;;;;;;;;;;;;;;;;6128626;23;20196;-93
2023/05/15 08:52:02;;;;;;;;;;;;;;;;;;6128964;23;19917;-93
2023/05/15 08:54:31;;;;;;;;;;;;;;;;;;6129501;23;19932;-94
2023/05/15 08:56:58;;;;;;;;;;;;;;;;;;6129007;23;19916;-93
2023/05/15 08:59:24;;;;;;;;;;;;;;;;;;6128863;23;19999;-93
2023/05/15 09:01:50;;;;;;;;;;;;;;;;;;6128753;23;19924;-93
2023/05/15 09:04:16;;;;;;;;;;;;;;;;;;6130509;23;19924;-93
2023/05/15 09:06:42;;;;;;;;;;;;;;;;;;6130340;23;19946;-93
2023/05/15 09:09:08;;;;;;;;;;;;;;;;;;6130591;23;19917;-94
2023/05/15 09:11:34;;;;;;;;;;;;;;;;;;6132376;23;19917;-94
2023/05/15 09:14:00;;;;;;;;;;;;;;;;;;6130168;23;19917;-93
2023/05/15 09:16:26;;;;;;;;;;;;;;;;;;6130663;23;20260;-92
2023/05/15 09:18:52;;;;;;;;;;;;;;;;;;6130444;23;20051;-93
2023/05/15 09:21:17;;;;;;;;;;;;;;;;;;6130524;23;19984;-93
2023/05/15 09:23:43;;;;;;;;;;;;;;;;;;6130180;23;19920;-94
2023/05/15 09:26:09;;;;;;;;;;;;;;;;;;6130971;23;19924;-93
2023/05/15 09:28:35;;;;;;;;;;;;;;;;;;6129903;23;19920;-94
2023/05/15 09:31:01;;;;;;;;;;;;;;;;;;6130671;23;19917;-94
2023/05/15 09:33:27;;;;;;;;;;;;;;;;;;6130748;23;20001;-95
2023/05/15 09:35:53;;;;;;;;;;;;;;;;;;6130493;23;20003;-93
2023/05/15 09:38:19;;;;;;;;;;;;;;;;;;6154618;23;19928;-93
2023/05/15 09:40:45;;;;;;;;;;;;;;;;;;6130347;23;19928;-94
2023/05/15 09:43:11;;;;;;;;;;;;;;;;;;6130263;23;19923;-93
2023/05/15 09:45:37;;;;;;;;;;;;;;;;;;6129909;23;19992;-93
2023/05/15 09:48:03;;;;;;;;;;;;;;;;;;6130367;23;20246;-92
2023/05/15 09:50:29;;;;;;;;;;;;;;;;;;6155088;23;20251;-93
2023/05/15 09:52:55;;;;;;;;;;;;;;;;;;6154985;23;19916;-94
2023/05/15 09:55:21;;;;;;;;;;;;;;;;;;6130401;23;19987;-93
2023/05/15 09:57:47;;;;;;;;;;;;;;;;;;6131014;23;19916;-93
2023/05/15 10:00:13;;;;;;;;;;;;;;;;;;6131704;23;19924;-95
2023/05/15 10:02:40;;;;;;;;;;;;;;;;;;6130061;23;19936;-93
2023/05/15 10:05:06;;;;;;;;;;;;;;;;;;6130112;23;19991;-94
2023/05/15 10:07:32;;;;;;;;;;;;;;;;;;6130199;23;19917;-95
2023/05/15 10:09:58;;;;;;;;;;;;;;;;;;6130156;23;19943;-94
2023/05/15 10:12:24;;;;;;;;;;;;;;;;;;6130424;23;20254;-93
2023/05/15 10:14:50;;;;;;;;;;;;;;;;;;6130833;23;20323;-94
2023/05/15 10:17:15;;;;;;;;;;;;;;;;;;6128665;23;19917;-95
2023/05/15 10:19:41;;;;;;;;;;;;;;;;;;6130341;23;19999;-95
2023/05/15 10:22:07;;;;;;;;;;;;;;;;;;6131087;23;19939;-93
2023/05/15 10:24:33;;;;;;;;;;;;;;;;;;6131481;23;19922;-95
2023/05/15 10:26:59;;;;;;;;;;;;;;;;;;6130912;23;19948;-93
2023/05/15 10:29:25;;;;;;;;;;;;;;;;;;6154053;23;19925;-93
2023/05/15 10:31:51;;;;;;;;;;;;;;;;;;6131519;23;20147;-92
2023/05/15 10:34:17;;;;;;;;;;;;;;;;;;6154869;23;20082;-93
2023/05/15 10:36:43;;;;;;;;;;;;;;;;;;6129541;23;19917;-93
2023/05/15 10:39:09;;;;;;;;;;;;;;;;;;6130197;23;20011;-93
2023/05/15 10:41:35;;;;;;;;;;;;;;;;;;6130061;23;19917;-93
2023/05/15 10:44:01;;;;;;;;;;;;;;;;;;6129693;23;20350;-92
2023/05/15 10:46:27;;;;;;;;;;;;;;;;;;6129865;23;20220;-93
2023/05/15 10:48:53;;;;;;;;;;;;;;;;;;6129706;23;20003;-93
2023/05/15 10:51:19;;;;;;;;;;;;;;;;;;6129333;23;19959;-93
2023/05/15 10:53:45;;;;;;;;;;;;;;;;;;6131091;23;19916;-95
2023/05/15 10:56:11;;;;;;;;;;;;;;;;;;6130589;23;19917;-95
2023/05/15 10:58:38;;;;;;;;;;;;;;;;;;6130401;23;19927;-94
2023/05/15 11:01:05;;;;;;;;;;;;;;;;;;6130286;23;19935;-93
2023/05/15 11:03:31;;;;;;;;;;;;;;;;;;6129886;23;19935;-93
2023/05/15 11:05:58;;;;;;;;;;;;;;;;;;6132039;23;19916;-96
2023/05/15 11:08:24;;;;;;;;;;;;;;;;;;6131167;23;19916;-95
2023/05/15 11:10:58;;;;;;;;;;;;;;;;;;6130984;23;19932;-96
2023/05/15 11:13:27;;;;;;;;;;;;;;;;;;6158314;23;19916;-96
2023/05/15 11:16:09;;;;;;;;;;;;;;;;;;;;;
2023/05/15 11:18:37;;;;;;;;;;;;;;;;;;6157797;23;19968;-95
2023/05/15 11:21:03;;;;;;;;;;;;;;;;;;6135933;23;19955;-96
2023/05/15 11:26:30;;;;;;;;;;;;;;;;;;6164639;23;19917;-96
2023/05/15 11:29:08;;;;;;;;;;;;;;;;;;6146637;23;19921;-96
2023/05/15 11:31:37;;;;;;;;;;;;;;;;;;6138491;23;20319;-95
2023/05/15 11:34:04;;;;;;;;;;;;;;;;;;6137243;23;19924;-94
2023/05/15 11:36:32;;;;;;;;;;;;;;;;;;6159732;23;20262;-95
2023/05/15 11:39:00;;;;;;;;;;;;;;;;;;6160549;23;20323;-95
2023/05/15 11:41:35;;;;;;;;;;;;;;;;;;6155762;23;20044;-95
2023/05/15 11:44:02;;;;;;;;;;;;;;;;;;6130949;23;19916;-95
2023/05/15 11:46:31;;;;;;;;;;;;;;;;;;6132551;23;20290;-96
2023/05/15 11:49:00;;;;;;;;;;;;;;;;;;6156387;23;19940;-95
2023/05/15 11:51:28;;;;;;;;;;;;;;;;;;6129003;23;19917;-96
2023/05/15 11:53:54;;;;;;;;;;;;;;;;;;6130109;23;19991;-95
2023/05/15 11:56:21;;;;;;;;;;;;;;;;;;6129636;23;19971;-95
2023/05/15 11:58:47;;;;;;;;;;;;;;;;;;6131368;23;19927;-96
2023/05/15 12:01:16;;;;;;;;;;;;;;;;;;6130815;23;19991;-96
2023/05/15 12:04:03;;;;;;;;;;;;;;;;;;;;;
2023/05/15 12:11:48;;;;;;;;;;;;;;;;;;6155944;23;19940;-94
2023/05/15 12:14:14;;;;;;;;;;;;;;;;;;6105652;23;19921;-96
2023/05/15 12:16:39;;;;;;;;;;;;;;;;;;6127478;23;19947;-94
2023/05/15 12:19:05;;;;;;;;;;;;;;;;;;6104421;23;20206;-93
2023/05/15 12:21:31;;;;;;;;;;;;;;;;;;6104810;23;19922;-95
2023/05/15 12:23:58;;;;;;;;;;;;;;;;;;6104831;23;20297;-94
2023/05/15 12:26:24;;;;;;;;;;;;;;;;;;6104371;23;20258;-93
2023/05/15 12:28:52;;;;;;;;;;;;;;;;;;6104244;23;20008;-94
2023/05/15 12:31:18;;;;;;;;;;;;;;;;;;6105463;23;19916;-95
2023/05/15 12:33:44;;;;;;;;;;;;;;;;;;6105184;23;20262;-95
2023/05/15 12:36:10;;;;;;;;;;;;;;;;;;6104676;23;19920;-94
2023/05/15 12:38:39;;;;;;;;;;;;;;;;;;6129450;23;19921;-96
2023/05/15 12:41:05;;;;;;;;;;;;;;;;;;6106689;23;19917;-93
2023/05/15 12:43:31;;;;;;;;;;;;;;;;;;6106666;23;19917;-94
2023/05/15 12:45:57;;;;;;;;;;;;;;;;;;6106545;23;19951;-93
2023/05/15 12:48:22;;;;;;;;;;;;;;;;;;6106614;23;19920;-94
2023/05/15 12:50:49;;;;;;;;;;;;;;;;;;6106216;23;19932;-94
2023/05/15 12:53:15;;;;;;;;;;;;;;;;;;6106152;23;19931;-93
2023/05/15 12:55:41;;;;;;;;;;;;;;;;;;6106879;23;19923;-92
2023/05/15 12:58:07;;;;;;;;;;;;;;;;;;6106429;23;20322;-94
2023/05/15 13:00:33;;;;;;;;;;;;;;;;;;6106618;23;19916;-94
2023/05/15 13:02:59;;;;;;;;;;;;;;;;;;6106916;23;20350;-96
2023/05/15 13:05:25;;;;;;;;;;;;;;;;;;6131985;23;19917;-90
2023/05/15 13:07:51;;;;;;;;;;;;;;;;;;6106681;23;19991;-92
2023/05/15 13:10:17;;;;;;;;;;;;;;;;;;6106647;23;20314;-93
2023/05/15 13:12:44;;;;;;;;;;;;;;;;;;6130585;23;19940;-93
2023/05/15 13:15:10;;;;;;;;;;;;;;;;;;6155798;23;19927;-93
2023/05/15 13:17:38;;;;;;;;;;;;;;;;;;6132384;23;19916;-96
2023/05/15 13:20:13;;;;;;;;;;;;;;;;;;6139865;23;19928;-93
2023/05/15 13:22:39;;;;;;;;;;;;;;;;;;6154788;23;19917;-93
2023/05/15 13:25:05;;;;;;;;;;;;;;;;;;6130708;23;19917;-94
2023/05/15 13:27:31;;;;;;;;;;;;;;;;;;6156974;23;19917;-93
2023/05/15 13:29:57;;;;;;;;;;;;;;;;;;6130211;23;19946;-94
2023/05/15 13:32:23;;;;;;;;;;;;;;;;;;6130316;23;19959;-94
2023/05/15 13:34:53;;;;;;;;;;;;;;;;;;6131416;23;19916;-95
2023/05/15 13:37:19;;;;;;;;;;;;;;;;;;6155723;23;19916;-95
2023/05/15 13:39:45;;;;;;;;;;;;;;;;;;6131008;23;19920;-93
2023/05/15 13:42:12;;;;;;;;;;;;;;;;;;6130873;23;20258;-94
2023/05/15 13:44:39;;;;;;;;;;;;;;;;;;6156511;23;19917;-92
2023/05/15 13:47:05;;;;;;;;;;;;;;;;;;6131127;23;20089;-94
2023/05/15 13:49:31;;;;;;;;;;;;;;;;;;6155064;23;20012;-92
2023/05/15 13:51:57;;;;;;;;;;;;;;;;;;6129756;23;19948;-93
2023/05/15 13:54:23;;;;;;;;;;;;;;;;;;6130458;23;19946;-93
2023/05/15 13:56:49;;;;;;;;;;;;;;;;;;6130101;23;20337;-93
2023/05/15 13:59:15;;;;;;;;;;;;;;;;;;6153833;23;19932;-93
2023/05/15 14:01:43;;;;;;;;;;;;;;;;;;6130363;23;20330;-94
2023/05/15 14:04:09;;;;;;;;;;;;;;;;;;6130362;23;20002;-92
2023/05/15 14:06:35;;;;;;;;;;;;;;;;;;6130490;23;19920;-92
2023/05/15 14:09:01;;;;;;;;;;;;;;;;;;6130273;23;19923;-95
2023/05/15 14:11:27;;;;;;;;;;;;;;;;;;6155066;23;19921;-92
2023/05/15 14:13:56;;;;;;;;;;;;;;;;;;6155286;23;19978;-94
2023/05/15 14:16:22;;;;;;;;;;;;;;;;;;6130443;23;19921;-92
2023/05/15 14:18:48;;;;;;;;;;;;;;;;;;6130390;23;19971;-91
2023/05/15 14:21:14;;;;;;;;;;;;;;;;;;6129559;23;19927;-92
2023/05/15 14:23:40;;;;;;;;;;;;;;;;;;6130538;23;19963;-93
2023/05/15 14:26:06;;;;;;;;;;;;;;;;;;6155778;23;19917;-92
2023/05/15 14:28:32;;;;;;;;;;;;;;;;;;6129875;23;20015;-91
2023/05/15 14:30:58;;;;;;;;;;;;;;;;;;6129723;23;19916;-92
2023/05/15 14:33:25;;;;;;;;;;;;;;;;;;6130203;23;19955;-92
2023/05/15 14:35:51;;;;;;;;;;;;;;;;;;6129774;23;19916;-93
2023/05/15 14:38:17;;;;;;;;;;;;;;;;;;6129243;23;19956;-92
2023/05/15 14:40:43;;;;;;;;;;;;;;;;;;6152865;23;19923;-95
2023/05/15 14:43:09;;;;;;;;;;;;;;;;;;6154591;23;19955;-94
2023/05/15 14:45:34;;;;;;;;;;;;;;;;;;6129475;23;19917;-93
2023/05/15 14:48:00;;;;;;;;;;;;;;;;;;6129976;23;19944;-93
2023/05/15 14:50:27;;;;;;;;;;;;;;;;;;6129656;23;19971;-93
2023/05/15 14:52:53;;;;;;;;;;;;;;;;;;6129564;23;19920;-94
2023/05/15 14:55:22;;;;;;;;;;;;;;;;;;6129774;23;19955;-93
2023/05/15 14:57:48;;;;;;;;;;;;;;;;;;6154768;23;19920;-95
2023/05/15 15:00:14;;;;;;;;;;;;;;;;;;6129698;23;19956;-94
2023/05/15 15:02:40;;;;;;;;;;;;;;;;;;6129651;23;20282;-93
2023/05/15 15:05:06;;;;;;;;;;;;;;;;;;6129978;23;19929;-94
2023/05/15 15:07:32;;;;;;;;;;;;;;;;;;6129672;23;19916;-91
2023/05/15 15:09:58;;;;;;;;;;;;;;;;;;6129141;23;19959;-93
2023/05/15 15:12:25;;;;;;;;;;;;;;;;;;6105125;23;19917;-92
2023/05/15 15:14:54;;;;;;;;;;;;;;;;;;6108357;23;19985;-93
2023/05/15 15:17:19;;;;;;;;;;;;;;;;;;6106286;23;19917;-94
2023/05/15 15:19:45;;;;;;;;;;;;;;;;;;6104788;23;19952;-93
2023/05/15 15:22:11;;;;;;;;;;;;;;;;;;6105167;23;19917;-93
2023/05/15 15:24:37;;;;;;;;;;;;;;;;;;6105394;23;20283;-96
2023/05/15 15:27:06;;;;;;;;;;;;;;;;;;6106361;23;19956;-96
2023/05/15 15:29:44;;;;;;;;;;;;;;;;;;6115150;23;19952;-96
2023/05/15 15:32:10;;;;;;;;;;;;;;;;;;6113326;23;19921;-96
2023/05/15 15:34:39;;;;;;;;;;;;;;;;;;6109022;23;20012;-96
2023/05/15 15:37:05;;;;;;;;;;;;;;;;;;6108833;23;19923;-96
2023/05/15 15:39:31;;;;;;;;;;;;;;;;;;6109343;23;19920;-94
2023/05/15 15:41:57;;;;;;;;;;;;;;;;;;6104487;23;19916;-94
2023/05/15 15:44:23;;;;;;;;;;;;;;;;;;6105315;23;19916;-92
2023/05/15 15:46:49;;;;;;;;;;;;;;;;;;6104427;23;19947;-94
2023/05/15 15:49:18;;;;;;;;;;;;;;;;;;6105529;23;20043;-94
2023/05/15 15:51:44;;;;;;;;;;;;;;;;;;6105015;23;19936;-93
2023/05/15 15:54:13;;;;;;;;;;;;;;;;;;6129016;23;20343;-95
2023/05/15 15:56:40;;;;;;;;;;;;;;;;;;6104493;23;19971;-94
2023/05/15 15:59:06;;;;;;;;;;;;;;;;;;6105008;23;19920;-96
2023/05/15 16:01:32;;;;;;;;;;;;;;;;;;6104917;23;19959;-96
2023/05/15 16:03:59;;;;;;;;;;;;;;;;;;6108900;23;19917;-96
2023/05/15 16:06:25;;;;;;;;;;;;;;;;;;6105805;23;19970;-96
2023/05/15 16:08:51;;;;;;;;;;;;;;;;;;6113293;23;19928;-94
2023/05/15 16:11:17;;;;;;;;;;;;;;;;;;6122318;23;20223;-96
2023/05/15 16:16:35;;;;;;;;;;;;;;;;;;6156161;23;19916;-95
2023/05/15 16:19:01;;;;;;;;;;;;;;;;;;6141883;23;20298;-96
2023/05/15 16:21:27;;;;;;;;;;;;;;;;;;6133810;23;20099;-94
2023/05/15 16:23:52;;;;;;;;;;;;;;;;;;6158960;23;20321;-95
2023/05/15 16:26:19;;;;;;;;;;;;;;;;;;6134293;23;19987;-95
2023/05/15 16:28:48;;;;;;;;;;;;;;;;;;6134327;23;19916;-93
2023/05/15 16:31:17;;;;;;;;;;;;;;;;;;6135783;23;19924;-94
2023/05/15 16:33:46;;;;;;;;;;;;;;;;;;6158755;23;20187;-94
2023/05/15 16:36:12;;;;;;;;;;;;;;;;;;6134214;23;19916;-96
2023/05/15 16:38:38;;;;;;;;;;;;;;;;;;6134481;23;20210;-95
2023/05/15 16:41:04;;;;;;;;;;;;;;;;;;6133765;23;19916;-95
2023/05/15 16:43:29;;;;;;;;;;;;;;;;;;6134531;23;20127;-93
2023/05/15 16:45:56;;;;;;;;;;;;;;;;;;6135047;23;19916;-94
2023/05/15 16:48:24;;;;;;;;;;;;;;;;;;6134196;23;19923;-94
2023/05/15 16:50:51;;;;;;;;;;;;;;;;;;6134484;23;19991;-94
2023/05/15 16:53:17;;;;;;;;;;;;;;;;;;6134136;23;19916;-93
2023/05/15 16:55:43;;;;;;;;;;;;;;;;;;6133705;23;19942;-92
2023/05/15 16:58:09;;;;;;;;;;;;;;;;;;6133583;23;19916;-93
2023/05/15 17:00:35;;;;;;;;;;;;;;;;;;6134708;23;19962;-94
2023/05/15 17:03:03;;;;;;;;;;;;;;;;;;6134515;23;19951;-93
2023/05/15 17:05:29;;;;;;;;;;;;;;;;;;6134092;23;19916;-92
2023/05/15 17:07:54;;;;;;;;;;;;;;;;;;6134161;23;19956;-95
2023/05/15 17:10:20;;;;;;;;;;;;;;;;;;6134407;23;20172;-95
2023/05/15 17:12:50;;;;;;;;;;;;;;;;;;6134897;23;19916;-94
2023/05/15 17:15:16;;;;;;;;;;;;;;;;;;6133326;23;19916;-94
2023/05/15 17:17:43;;;;;;;;;;;;;;;;;;6134242;23;19932;-94
2023/05/15 17:20:08;;;;;;;;;;;;;;;;;;6134549;23;19920;-94
2023/05/15 17:22:34;;;;;;;;;;;;;;;;;;6133885;23;19916;-94
2023/05/15 17:25:03;;;;;;;;;;;;;;;;;;6159800;23;19966;-93
2023/05/15 17:30:05;;;;;;;;;;;;;;;;;;6182294;22;19920;-96
2023/05/15 17:43:35;;;;;;;;;;;;;;;;;;6153592;23;19964;-93
2023/05/15 17:56:27;;;;;;;;;;;;;;;;;;6164035;23;20350;-96
2023/05/15 17:58:53;;;;;;;;;;;;;;;;;;6105732;23;19944;-93
2023/05/15 18:01:21;;;;;;;;;;;;;;;;;;6106164;23;19917;-95
2023/05/15 18:03:47;;;;;;;;;;;;;;;;;;6106672;23;19917;-96
2023/05/15 18:06:13;;;;;;;;;;;;;;;;;;6106588;23;19971;-94
2023/05/15 18:08:39;;;;;;;;;;;;;;;;;;6106286;23;19924;-96
2023/05/15 18:11:05;;;;;;;;;;;;;;;;;;6106577;23;19917;-96
2023/05/15 18:13:31;;;;;;;;;;;;;;;;;;6106402;23;20242;-95